Bradford Regional Airport
KBFD : now visible

Airfield :











YOU CAN JOIN US ON...

 
LOGIN :

Register | Disclaimer

   EN    FR    IT 

 









Legend :    VFR   Marginal VFR   IFR   Intensive IFR   Very Intensive IFR
Visi :
Ceiling :
>= 8 km
>= 3000ft
5 to 8 km
1000 to 3000 ft
1500m to 5 km
500 to 1000 ft
800 to 1500m
200 to 500 ft
< 800m
< 200 ft
Symbols :   Thunderstorms  Fog  Heavy snow  Heavy precipitations  Wind > 20 kt







- Airport Elevation : 2143 ft
- IATA code : BFD


KBFD - Bradford Regional

CURRENT METAR :
  • 160253Z AUTO 23004KT 4SM RA BR SCT006 BKN035 OVC060 16/16 A2995 RMK AO2 SLP132 P0007 60025 T01610156 50003

EXPIRED METARs :
  • 160242Z AUTO 23006KT 5SM -RA BR SCT006 BKN034 OVC065 16/16 A2996 RMK AO2 P0005 T01610156
  • 160153Z AUTO VRB05KT 6SM -RA BR BKN008 OVC011 16/16 A2996 RMK AO2 SLP134 P0012 T01610156
  • 160114Z AUTO 21005KT 4SM RA BR BKN009 BKN022 OVC028 16/15 A2995 RMK AO2 P0006 T01610150
  • 160109Z AUTO 21006KT 3SM RA BR SCT011 BKN027 OVC035 16/15 A2996 RMK AO2 P0005 T01610150
  • 160053Z AUTO VRB05KT 5SM -RA BR SCT028 OVC085 16/15 A2995 RMK AO2 SLP135 P0006 T01610150

TAF KBFD
Valid from the 16 at 03:00 until the 17 at 00:00 UTC


160244Z 1603/1624 20006KT 4SM -RA BR OVC008
FM160600 18005KT 3SM -RA BR OVC003
FM161600 32005KT P6SM VCSH OVC015
KZOB FIR / North America



MET'MAP, your aeronautical weather chart ! - Copyright ORBIFLY December 2007 - Disclaimer

ORBIFLY MET'MAP TEAM :

Programming & Development : Alexandra Zaïnal
Concept & Development : Baudouin d'Aumeries
Co-Development & Prog : Marc-Olivier Méhu
Technical & hardware support : Manuel Goepfert

Contact : metmap@orbifly.com




SOURCES & CREDITS :

   NOAA       Earth
Advisory